sensor_id;sensor_type;location;lat;lon;timestamp;P1;durP1;ratioP1;P2;durP2;ratioP2
41739;SDS011;27422;52.444;13.300;2023-07-24T00:01:25;5.07;;;2.25;;
41739;SDS011;27422;52.444;13.300;2023-07-24T00:03:50;4.10;;;2.17;;
41739;SDS011;27422;52.444;13.300;2023-07-24T00:06:16;4.03;;;2.00;;
41739;SDS011;27422;52.444;13.300;2023-07-24T00:08:41;4.57;;;2.40;;
41739;SDS011;27422;52.444;13.300;2023-07-24T00:11:07;5.65;;;2.40;;
41739;SDS011;27422;52.444;13.300;2023-07-24T00:13:33;4.40;;;2.10;;
41739;SDS011;27422;52.444;13.300;2023-07-24T00:15:58;3.67;;;2.08;;
41739;SDS011;27422;52.444;13.300;2023-07-24T00:18:23;4.75;;;2.13;;
41739;SDS011;27422;52.444;13.300;2023-07-24T00:20:49;5.13;;;1.90;;
41739;SDS011;27422;52.444;13.300;2023-07-24T00:23:14;4.00;;;2.15;;
41739;SDS011;27422;52.444;13.300;2023-07-24T00:25:40;4.95;;;2.10;;
41739;SDS011;27422;52.444;13.300;2023-07-24T00:28:05;4.50;;;2.42;;
41739;SDS011;27422;52.444;13.300;2023-07-24T00:30:30;3.85;;;2.17;;
41739;SDS011;27422;52.444;13.300;2023-07-24T00:32:56;4.00;;;2.13;;
41739;SDS011;27422;52.444;13.300;2023-07-24T00:35:21;4.18;;;2.17;;
41739;SDS011;27422;52.444;13.300;2023-07-24T00:37:47;4.82;;;2.08;;
41739;SDS011;27422;52.444;13.300;2023-07-24T00:40:12;4.75;;;2.17;;
41739;SDS011;27422;52.444;13.300;2023-07-24T00:42:38;3.95;;;2.17;;
41739;SDS011;27422;52.444;13.300;2023-07-24T00:45:03;4.40;;;2.10;;
41739;SDS011;27422;52.444;13.300;2023-07-24T00:47:29;4.63;;;2.20;;
41739;SDS011;27422;52.444;13.300;2023-07-24T00:49:54;4.28;;;2.15;;
41739;SDS011;27422;52.444;13.300;2023-07-24T00:52:20;7.20;;;2.55;;
41739;SDS011;27422;52.444;13.300;2023-07-24T00:54:48;4.70;;;2.15;;
41739;SDS011;27422;52.444;13.300;2023-07-24T00:57:14;4.72;;;2.47;;
41739;SDS011;27422;52.444;13.300;2023-07-24T00:59:41;4.47;;;2.45;;
41739;SDS011;27422;52.444;13.300;2023-07-24T01:02:07;5.25;;;2.10;;
41739;SDS011;27422;52.444;13.300;2023-07-24T01:04:32;4.40;;;2.20;;
41739;SDS011;27422;52.444;13.300;2023-07-24T01:06:58;6.47;;;2.42;;
41739;SDS011;27422;52.444;13.300;2023-07-24T01:09:24;4.72;;;2.25;;
41739;SDS011;27422;52.444;13.300;2023-07-24T01:11:56;4.43;;;2.20;;
41739;SDS011;27422;52.444;13.300;2023-07-24T01:14:26;3.33;;;1.95;;
41739;SDS011;27422;52.444;13.300;2023-07-24T01:16:56;4.30;;;2.33;;
41739;SDS011;27422;52.444;13.300;2023-07-24T01:19:36;5.10;;;2.40;;
41739;SDS011;27422;52.444;13.300;2023-07-24T01:27:20;5.75;;;2.10;;
41739;SDS011;27422;52.444;13.300;2023-07-24T01:29:48;5.15;;;2.00;;
41739;SDS011;27422;52.444;13.300;2023-07-24T01:32:13;4.57;;;2.13;;
41739;SDS011;27422;52.444;13.300;2023-07-24T01:34:39;4.68;;;2.40;;
41739;SDS011;27422;52.444;13.300;2023-07-24T01:37:04;4.55;;;2.40;;
41739;SDS011;27422;52.444;13.300;2023-07-24T01:39:30;7.00;;;2.40;;
41739;SDS011;27422;52.444;13.300;2023-07-24T01:41:55;4.22;;;2.00;;
41739;SDS011;27422;52.444;13.300;2023-07-24T01:44:21;3.75;;;2.00;;
41739;SDS011;27422;52.444;13.300;2023-07-24T01:46:46;5.18;;;2.20;;
41739;SDS011;27422;52.444;13.300;2023-07-24T01:49:12;3.85;;;2.00;;
41739;SDS011;27422;52.444;13.300;2023-07-24T01:51:37;4.82;;;2.25;;
41739;SDS011;27422;52.444;13.300;2023-07-24T01:54:02;4.43;;;2.10;;
41739;SDS011;27422;52.444;13.300;2023-07-24T01:56:28;5.80;;;2.17;;
41739;SDS011;27422;52.444;13.300;2023-07-24T01:58:53;4.95;;;2.30;;
41739;SDS011;27422;52.444;13.300;2023-07-24T02:01:18;4.85;;;2.05;;
41739;SDS011;27422;52.444;13.300;2023-07-24T02:03:44;4.25;;;2.00;;
41739;SDS011;27422;52.444;13.300;2023-07-24T02:06:09;3.92;;;1.95;;
41739;SDS011;27422;52.444;13.300;2023-07-24T02:08:35;3.53;;;1.90;;
41739;SDS011;27422;52.444;13.300;2023-07-24T02:11:00;4.43;;;2.13;;
41739;SDS011;27422;52.444;13.300;2023-07-24T02:13:26;4.30;;;2.03;;
41739;SDS011;27422;52.444;13.300;2023-07-24T02:15:51;5.20;;;2.38;;
41739;SDS011;27422;52.444;13.300;2023-07-24T02:18:18;4.15;;;2.25;;
41739;SDS011;27422;52.444;13.300;2023-07-24T02:20:50;4.20;;;2.05;;
41739;SDS011;27422;52.444;13.300;2023-07-24T02:23:19;6.00;;;2.10;;
41739;SDS011;27422;52.444;13.300;2023-07-24T02:25:44;4.32;;;1.90;;
41739;SDS011;27422;52.444;13.300;2023-07-24T02:28:09;4.63;;;2.25;;
41739;SDS011;27422;52.444;13.300;2023-07-24T02:30:39;4.35;;;2.10;;
41739;SDS011;27422;52.444;13.300;2023-07-24T02:33:04;6.07;;;2.20;;
41739;SDS011;27422;52.444;13.300;2023-07-24T02:35:38;4.38;;;2.20;;
41739;SDS011;27422;52.444;13.300;2023-07-24T02:38:07;4.10;;;2.00;;
41739;SDS011;27422;52.444;13.300;2023-07-24T02:40:33;4.68;;;2.15;;
41739;SDS011;27422;52.444;13.300;2023-07-24T02:42:59;5.25;;;1.85;;
41739;SDS011;27422;52.444;13.300;2023-07-24T02:45:24;5.15;;;1.95;;
41739;SDS011;27422;52.444;13.300;2023-07-24T02:47:49;3.42;;;1.77;;
41739;SDS011;27422;52.444;13.300;2023-07-24T02:50:15;4.80;;;2.17;;
41739;SDS011;27422;52.444;13.300;2023-07-24T02:52:40;3.97;;;1.95;;
41739;SDS011;27422;52.444;13.300;2023-07-24T02:55:06;4.55;;;1.85;;
41739;SDS011;27422;52.444;13.300;2023-07-24T02:57:31;3.72;;;1.60;;
41739;SDS011;27422;52.444;13.300;2023-07-24T02:59:56;4.45;;;2.00;;
41739;SDS011;27422;52.444;13.300;2023-07-24T03:02:22;3.33;;;1.55;;
41739;SDS011;27422;52.444;13.300;2023-07-24T03:04:47;3.83;;;1.63;;
41739;SDS011;27422;52.444;13.300;2023-07-24T03:07:12;3.78;;;1.80;;
41739;SDS011;27422;52.444;13.300;2023-07-24T03:09:38;4.03;;;1.65;;
41739;SDS011;27422;52.444;13.300;2023-07-24T03:12:03;4.63;;;1.83;;
41739;SDS011;27422;52.444;13.300;2023-07-24T03:14:29;4.20;;;1.73;;
41739;SDS011;27422;52.444;13.300;2023-07-24T03:16:54;4.60;;;1.63;;
41739;SDS011;27422;52.444;13.300;2023-07-24T03:19:20;3.70;;;1.52;;
41739;SDS011;27422;52.444;13.300;2023-07-24T03:21:45;3.65;;;1.90;;
41739;SDS011;27422;52.444;13.300;2023-07-24T03:24:11;5.13;;;1.90;;
41739;SDS011;27422;52.444;13.300;2023-07-24T03:26:36;3.80;;;1.77;;
41739;SDS011;27422;52.444;13.300;2023-07-24T03:29:02;4.18;;;1.92;;
41739;SDS011;27422;52.444;13.300;2023-07-24T03:31:28;3.95;;;1.90;;
41739;SDS011;27422;52.444;13.300;2023-07-24T03:33:53;3.67;;;1.50;;
41739;SDS011;27422;52.444;13.300;2023-07-24T03:36:18;4.55;;;1.98;;
41739;SDS011;27422;52.444;13.300;2023-07-24T03:38:44;3.30;;;1.65;;
41739;SDS011;27422;52.444;13.300;2023-07-24T03:41:09;2.97;;;1.40;;
41739;SDS011;27422;52.444;13.300;2023-07-24T03:43:34;4.90;;;1.45;;
41739;SDS011;27422;52.444;13.300;2023-07-24T03:46:00;3.08;;;1.35;;
41739;SDS011;27422;52.444;13.300;2023-07-24T03:48:25;4.60;;;1.50;;
41739;SDS011;27422;52.444;13.300;2023-07-24T03:50:57;3.22;;;1.35;;
41739;SDS011;27422;52.444;13.300;2023-07-24T03:53:23;3.10;;;1.48;;
41739;SDS011;27422;52.444;13.300;2023-07-24T03:55:48;4.30;;;1.60;;
41739;SDS011;27422;52.444;13.300;2023-07-24T03:58:13;3.20;;;1.40;;
41739;SDS011;27422;52.444;13.300;2023-07-24T04:00:39;3.42;;;1.30;;
41739;SDS011;27422;52.444;13.300;2023-07-24T04:03:04;3.15;;;1.40;;
41739;SDS011;27422;52.444;13.300;2023-07-24T04:05:30;3.45;;;1.45;;
41739;SDS011;27422;52.444;13.300;2023-07-24T04:07:55;2.97;;;1.40;;
41739;SDS011;27422;52.444;13.300;2023-07-24T04:10:20;2.65;;;1.30;;
41739;SDS011;27422;52.444;13.300;2023-07-24T04:12:46;3.50;;;1.60;;
41739;SDS011;27422;52.444;13.300;2023-07-24T04:15:11;2.92;;;1.40;;
41739;SDS011;27422;52.444;13.300;2023-07-24T04:17:36;4.00;;;1.38;;
41739;SDS011;27422;52.444;13.300;2023-07-24T04:20:04;3.60;;;1.20;;
41739;SDS011;27422;52.444;13.300;2023-07-24T04:22:30;2.53;;;1.13;;
41739;SDS011;27422;52.444;13.300;2023-07-24T04:24:55;3.67;;;1.60;;
41739;SDS011;27422;52.444;13.300;2023-07-24T04:27:21;2.50;;;1.10;;
41739;SDS011;27422;52.444;13.300;2023-07-24T04:29:49;2.45;;;1.15;;
41739;SDS011;27422;52.444;13.300;2023-07-24T04:32:14;2.72;;;1.05;;
41739;SDS011;27422;52.444;13.300;2023-07-24T04:34:40;2.67;;;1.13;;
41739;SDS011;27422;52.444;13.300;2023-07-24T04:37:05;3.63;;;1.13;;
41739;SDS011;27422;52.444;13.300;2023-07-24T04:39:30;3.20;;;1.27;;
41739;SDS011;27422;52.444;13.300;2023-07-24T04:41:56;2.38;;;1.05;;
41739;SDS011;27422;52.444;13.300;2023-07-24T04:44:21;3.30;;;1.05;;
41739;SDS011;27422;52.444;13.300;2023-07-24T04:46:47;2.80;;;1.20;;
41739;SDS011;27422;52.444;13.300;2023-07-24T04:49:12;3.72;;;1.10;;
41739;SDS011;27422;52.444;13.300;2023-07-24T04:51:37;4.07;;;0.90;;
41739;SDS011;27422;52.444;13.300;2023-07-24T04:54:03;2.67;;;1.10;;
41739;SDS011;27422;52.444;13.300;2023-07-24T04:56:28;3.22;;;0.90;;
41739;SDS011;27422;52.444;13.300;2023-07-24T04:58:53;2.35;;;1.02;;
41739;SDS011;27422;52.444;13.300;2023-07-24T05:01:19;2.38;;;1.00;;
41739;SDS011;27422;52.444;13.300;2023-07-24T05:03:44;2.28;;;0.80;;
41739;SDS011;27422;52.444;13.300;2023-07-24T05:06:09;2.20;;;0.90;;
41739;SDS011;27422;52.444;13.300;2023-07-24T05:08:35;1.67;;;0.80;;
41739;SDS011;27422;52.444;13.300;2023-07-24T05:11:00;2.45;;;0.73;;
41739;SDS011;27422;52.444;13.300;2023-07-24T05:13:26;3.83;;;1.00;;
41739;SDS011;27422;52.444;13.300;2023-07-24T05:15:52;2.25;;;0.80;;
41739;SDS011;27422;52.444;13.300;2023-07-24T05:18:17;3.78;;;1.13;;
41739;SDS011;27422;52.444;13.300;2023-07-24T05:20:46;2.05;;;0.80;;
41739;SDS011;27422;52.444;13.300;2023-07-24T05:23:12;1.85;;;0.80;;
41739;SDS011;27422;52.444;13.300;2023-07-24T05:25:38;2.45;;;1.05;;
41739;SDS011;27422;52.444;13.300;2023-07-24T05:28:04;1.92;;;0.80;;
41739;SDS011;27422;52.444;13.300;2023-07-24T05:30:29;3.58;;;1.25;;
41739;SDS011;27422;52.444;13.300;2023-07-24T05:32:54;2.17;;;0.90;;
41739;SDS011;27422;52.444;13.300;2023-07-24T05:35:20;2.45;;;0.80;;
41739;SDS011;27422;52.444;13.300;2023-07-24T05:37:45;1.98;;;0.85;;
41739;SDS011;27422;52.444;13.300;2023-07-24T05:40:11;3.47;;;0.95;;
41739;SDS011;27422;52.444;13.300;2023-07-24T05:42:37;3.33;;;0.90;;
41739;SDS011;27422;52.444;13.300;2023-07-24T05:45:07;1.83;;;0.90;;
41739;SDS011;27422;52.444;13.300;2023-07-24T05:47:33;3.67;;;0.95;;
41739;SDS011;27422;52.444;13.300;2023-07-24T05:49:58;2.55;;;1.05;;
41739;SDS011;27422;52.444;13.300;2023-07-24T05:52:23;2.88;;;0.95;;
41739;SDS011;27422;52.444;13.300;2023-07-24T05:54:49;1.90;;;0.90;;
41739;SDS011;27422;52.444;13.300;2023-07-24T05:57:14;2.03;;;0.90;;
41739;SDS011;27422;52.444;13.300;2023-07-24T05:59:40;2.10;;;0.95;;
41739;SDS011;27422;52.444;13.300;2023-07-24T06:02:05;2.80;;;1.10;;
41739;SDS011;27422;52.444;13.300;2023-07-24T06:04:32;2.42;;;1.05;;
41739;SDS011;27422;52.444;13.300;2023-07-24T06:06:57;2.47;;;1.00;;
41739;SDS011;27422;52.444;13.300;2023-07-24T06:09:23;3.05;;;1.10;;
41739;SDS011;27422;52.444;13.300;2023-07-24T06:11:48;3.20;;;1.38;;
41739;SDS011;27422;52.444;13.300;2023-07-24T06:14:13;2.63;;;1.25;;
41739;SDS011;27422;52.444;13.300;2023-07-24T06:16:39;2.95;;;1.27;;
41739;SDS011;27422;52.444;13.300;2023-07-24T06:19:04;6.15;;;1.65;;
41739;SDS011;27422;52.444;13.300;2023-07-24T06:21:30;2.90;;;1.33;;
41739;SDS011;27422;52.444;13.300;2023-07-24T06:23:55;2.90;;;1.35;;
41739;SDS011;27422;52.444;13.300;2023-07-24T06:26:21;3.88;;;1.38;;
41739;SDS011;27422;52.444;13.300;2023-07-24T06:28:46;2.38;;;1.23;;
41739;SDS011;27422;52.444;13.300;2023-07-24T06:31:12;2.95;;;1.30;;
41739;SDS011;27422;52.444;13.300;2023-07-24T06:33:37;3.58;;;1.20;;
41739;SDS011;27422;52.444;13.300;2023-07-24T06:36:03;2.60;;;1.42;;
41739;SDS011;27422;52.444;13.300;2023-07-24T06:38:28;2.63;;;1.40;;
41739;SDS011;27422;52.444;13.300;2023-07-24T06:40:53;2.40;;;1.25;;
41739;SDS011;27422;52.444;13.300;2023-07-24T06:43:19;2.83;;;1.42;;
41739;SDS011;27422;52.444;13.300;2023-07-24T06:45:44;2.75;;;1.30;;
41739;SDS011;27422;52.444;13.300;2023-07-24T06:48:09;4.07;;;1.48;;
41739;SDS011;27422;52.444;13.300;2023-07-24T06:50:35;3.20;;;1.65;;
41739;SDS011;27422;52.444;13.300;2023-07-24T06:53:00;2.95;;;1.40;;
41739;SDS011;27422;52.444;13.300;2023-07-24T06:55:25;2.53;;;1.40;;
41739;SDS011;27422;52.444;13.300;2023-07-24T06:57:51;4.68;;;1.75;;
41739;SDS011;27422;52.444;13.300;2023-07-24T07:00:16;3.20;;;1.48;;
41739;SDS011;27422;52.444;13.300;2023-07-24T07:02:42;2.90;;;1.60;;
41739;SDS011;27422;52.444;13.300;2023-07-24T07:05:07;3.10;;;1.60;;
41739;SDS011;27422;52.444;13.300;2023-07-24T07:07:33;2.92;;;1.40;;
41739;SDS011;27422;52.444;13.300;2023-07-24T07:09:58;3.53;;;1.63;;
41739;SDS011;27422;52.444;13.300;2023-07-24T07:12:24;4.43;;;1.50;;
41739;SDS011;27422;52.444;13.300;2023-07-24T07:14:49;3.13;;;1.60;;
41739;SDS011;27422;52.444;13.300;2023-07-24T07:17:14;2.50;;;1.15;;
41739;SDS011;27422;52.444;13.300;2023-07-24T07:19:40;2.95;;;1.52;;
41739;SDS011;27422;52.444;13.300;2023-07-24T07:22:05;3.00;;;1.52;;
41739;SDS011;27422;52.444;13.300;2023-07-24T07:24:31;3.50;;;1.45;;
41739;SDS011;27422;52.444;13.300;2023-07-24T07:26:56;2.90;;;1.40;;
41739;SDS011;27422;52.444;13.300;2023-07-24T07:29:21;3.70;;;1.40;;
41739;SDS011;27422;52.444;13.300;2023-07-24T07:31:47;3.97;;;1.40;;
41739;SDS011;27422;52.444;13.300;2023-07-24T07:34:12;2.40;;;1.20;;
41739;SDS011;27422;52.444;13.300;2023-07-24T07:36:37;2.70;;;1.40;;
41739;SDS011;27422;52.444;13.300;2023-07-24T07:39:03;2.80;;;1.40;;
41739;SDS011;27422;52.444;13.300;2023-07-24T07:41:28;3.05;;;1.42;;
41739;SDS011;27422;52.444;13.300;2023-07-24T07:43:54;2.65;;;1.40;;
41739;SDS011;27422;52.444;13.300;2023-07-24T07:46:19;2.45;;;1.10;;
41739;SDS011;27422;52.444;13.300;2023-07-24T07:48:45;3.05;;;1.48;;
41739;SDS011;27422;52.444;13.300;2023-07-24T07:51:11;2.30;;;1.17;;
41739;SDS011;27422;52.444;13.300;2023-07-24T07:53:37;3.10;;;1.30;;
41739;SDS011;27422;52.444;13.300;2023-07-24T07:56:03;2.55;;;1.13;;
41739;SDS011;27422;52.444;13.300;2023-07-24T07:58:29;2.28;;;1.10;;
41739;SDS011;27422;52.444;13.300;2023-07-24T08:00:54;3.85;;;1.30;;
41739;SDS011;27422;52.444;13.300;2023-07-24T08:03:20;2.65;;;1.20;;
41739;SDS011;27422;52.444;13.300;2023-07-24T08:05:45;2.60;;;1.10;;
41739;SDS011;27422;52.444;13.300;2023-07-24T08:08:11;2.97;;;1.33;;
41739;SDS011;27422;52.444;13.300;2023-07-24T08:10:37;2.28;;;1.10;;
41739;SDS011;27422;52.444;13.300;2023-07-24T08:13:03;2.80;;;1.27;;
41739;SDS011;27422;52.444;13.300;2023-07-24T08:15:28;2.63;;;1.25;;
41739;SDS011;27422;52.444;13.300;2023-07-24T08:17:54;2.50;;;1.20;;
41739;SDS011;27422;52.444;13.300;2023-07-24T08:20:19;2.53;;;1.30;;
41739;SDS011;27422;52.444;13.300;2023-07-24T08:22:44;3.00;;;1.10;;
41739;SDS011;27422;52.444;13.300;2023-07-24T08:25:10;2.95;;;1.02;;
41739;SDS011;27422;52.444;13.300;2023-07-24T08:27:35;1.92;;;1.00;;
41739;SDS011;27422;52.444;13.300;2023-07-24T08:30:01;2.72;;;1.20;;
41739;SDS011;27422;52.444;13.300;2023-07-24T08:32:26;2.40;;;1.20;;
41739;SDS011;27422;52.444;13.300;2023-07-24T08:34:51;2.60;;;1.20;;
41739;SDS011;27422;52.444;13.300;2023-07-24T08:37:17;3.83;;;1.30;;
41739;SDS011;27422;52.444;13.300;2023-07-24T08:39:42;2.45;;;1.00;;
41739;SDS011;27422;52.444;13.300;2023-07-24T08:42:11;2.70;;;1.10;;
41739;SDS011;27422;52.444;13.300;2023-07-24T08:44:37;2.78;;;1.02;;
41739;SDS011;27422;52.444;13.300;2023-07-24T08:47:03;5.05;;;1.20;;
41739;SDS011;27422;52.444;13.300;2023-07-24T08:49:29;3.42;;;1.20;;
41739;SDS011;27422;52.444;13.300;2023-07-24T08:51:55;2.88;;;0.98;;
41739;SDS011;27422;52.444;13.300;2023-07-24T08:54:21;3.10;;;1.00;;
41739;SDS011;27422;52.444;13.300;2023-07-24T08:56:47;2.72;;;1.50;;
41739;SDS011;27422;52.444;13.300;2023-07-24T09:01:41;2.85;;;1.35;;
41739;SDS011;27422;52.444;13.300;2023-07-24T09:04:06;2.40;;;1.00;;
41739;SDS011;27422;52.444;13.300;2023-07-24T09:06:31;2.88;;;1.23;;
41739;SDS011;27422;52.444;13.300;2023-07-24T09:08:57;3.95;;;1.20;;
41739;SDS011;27422;52.444;13.300;2023-07-24T09:11:22;2.58;;;1.10;;
41739;SDS011;27422;52.444;13.300;2023-07-24T09:13:48;3.22;;;0.90;;
41739;SDS011;27422;52.444;13.300;2023-07-24T09:16:24;2.55;;;1.08;;
41739;SDS011;27422;52.444;13.300;2023-07-24T09:18:52;2.30;;;1.02;;
41739;SDS011;27422;52.444;13.300;2023-07-24T09:21:31;2.92;;;1.10;;
41739;SDS011;27422;52.444;13.300;2023-07-24T09:24:08;3.40;;;1.13;;
41739;SDS011;27422;52.444;13.300;2023-07-24T09:26:53;2.10;;;0.93;;
41739;SDS011;27422;52.444;13.300;2023-07-24T09:29:18;3.25;;;1.30;;
41739;SDS011;27422;52.444;13.300;2023-07-24T09:31:45;2.63;;;1.17;;
41739;SDS011;27422;52.444;13.300;2023-07-24T09:34:17;3.03;;;1.27;;
41739;SDS011;27422;52.444;13.300;2023-07-24T09:36:43;2.65;;;1.10;;
41739;SDS011;27422;52.444;13.300;2023-07-24T09:39:09;3.88;;;1.30;;
41739;SDS011;27422;52.444;13.300;2023-07-24T09:44:01;2.53;;;1.25;;
41739;SDS011;27422;52.444;13.300;2023-07-24T09:46:27;4.35;;;1.10;;
41739;SDS011;27422;52.444;13.300;2023-07-24T09:48:56;3.15;;;1.30;;
41739;SDS011;27422;52.444;13.300;2023-07-24T09:51:22;3.90;;;1.50;;
41739;SDS011;27422;52.444;13.300;2023-07-24T09:53:52;3.55;;;1.55;;
41739;SDS011;27422;52.444;13.300;2023-07-24T09:56:23;3.20;;;1.40;;
41739;SDS011;27422;52.444;13.300;2023-07-24T09:58:49;2.95;;;1.30;;
41739;SDS011;27422;52.444;13.300;2023-07-24T10:01:19;2.60;;;1.15;;
41739;SDS011;27422;52.444;13.300;2023-07-24T10:03:48;3.15;;;1.58;;
41739;SDS011;27422;52.444;13.300;2023-07-24T10:06:15;3.22;;;1.45;;
41739;SDS011;27422;52.444;13.300;2023-07-24T10:08:41;2.80;;;1.20;;
41739;SDS011;27422;52.444;13.300;2023-07-24T10:11:07;3.38;;;1.15;;
41739;SDS011;27422;52.444;13.300;2023-07-24T10:13:33;3.33;;;1.42;;
41739;SDS011;27422;52.444;13.300;2023-07-24T10:16:02;2.88;;;1.38;;
41739;SDS011;27422;52.444;13.300;2023-07-24T10:18:30;3.78;;;1.40;;
41739;SDS011;27422;52.444;13.300;2023-07-24T10:21:03;4.13;;;1.60;;
41739;SDS011;27422;52.444;13.300;2023-07-24T10:23:35;3.63;;;1.70;;
41739;SDS011;27422;52.444;13.300;2023-07-24T10:26:03;3.90;;;2.00;;
41739;SDS011;27422;52.444;13.300;2023-07-24T10:28:33;3.40;;;1.90;;
41739;SDS011;27422;52.444;13.300;2023-07-24T10:31:03;4.40;;;2.08;;
41739;SDS011;27422;52.444;13.300;2023-07-24T10:33:33;3.63;;;1.55;;
41739;SDS011;27422;52.444;13.300;2023-07-24T10:36:09;3.58;;;1.90;;
41739;SDS011;27422;52.444;13.300;2023-07-24T10:38:39;4.25;;;2.00;;
41739;SDS011;27422;52.444;13.300;2023-07-24T10:41:06;3.80;;;1.70;;
41739;SDS011;27422;52.444;13.300;2023-07-24T10:43:43;3.83;;;2.03;;
41739;SDS011;27422;52.444;13.300;2023-07-24T10:46:09;5.00;;;2.10;;
41739;SDS011;27422;52.444;13.300;2023-07-24T10:48:35;4.30;;;2.35;;
41739;SDS011;27422;52.444;13.300;2023-07-24T10:51:05;4.78;;;2.35;;
41739;SDS011;27422;52.444;13.300;2023-07-24T10:53:33;4.97;;;2.45;;
41739;SDS011;27422;52.444;13.300;2023-07-24T10:56:00;4.22;;;2.50;;
41739;SDS011;27422;52.444;13.300;2023-07-24T10:58:25;4.50;;;2.45;;
41739;SDS011;27422;52.444;13.300;2023-07-24T11:00:52;7.30;;;3.07;;
41739;SDS011;27422;52.444;13.300;2023-07-24T11:03:17;5.03;;;2.70;;
41739;SDS011;27422;52.444;13.300;2023-07-24T11:05:43;4.57;;;2.72;;
41739;SDS011;27422;52.444;13.300;2023-07-24T11:08:14;4.63;;;2.45;;
41739;SDS011;27422;52.444;13.300;2023-07-24T11:10:52;6.05;;;2.50;;
41739;SDS011;27422;52.444;13.300;2023-07-24T11:13:20;5.15;;;2.50;;
41739;SDS011;27422;52.444;13.300;2023-07-24T11:18:12;5.70;;;2.10;;
41739;SDS011;27422;52.444;13.300;2023-07-24T11:20:45;4.43;;;2.50;;
41739;SDS011;27422;52.444;13.300;2023-07-24T11:23:12;4.80;;;2.47;;
41739;SDS011;27422;52.444;13.300;2023-07-24T11:25:38;5.65;;;2.50;;
41739;SDS011;27422;52.444;13.300;2023-07-24T11:28:05;5.63;;;2.40;;
41739;SDS011;27422;52.444;13.300;2023-07-24T11:30:31;4.70;;;2.72;;
41739;SDS011;27422;52.444;13.300;2023-07-24T11:32:57;4.60;;;2.45;;
41739;SDS011;27422;52.444;13.300;2023-07-24T11:35:24;5.57;;;3.00;;
41739;SDS011;27422;52.444;13.300;2023-07-24T11:37:50;5.10;;;2.70;;
41739;SDS011;27422;52.444;13.300;2023-07-24T11:40:16;4.45;;;2.60;;
41739;SDS011;27422;52.444;13.300;2023-07-24T11:42:44;4.53;;;2.63;;
41739;SDS011;27422;52.444;13.300;2023-07-24T11:45:10;6.72;;;2.83;;
41739;SDS011;27422;52.444;13.300;2023-07-24T11:47:43;5.80;;;3.38;;
41739;SDS011;27422;52.444;13.300;2023-07-24T11:50:13;4.80;;;2.65;;
41739;SDS011;27422;52.444;13.300;2023-07-24T11:52:40;4.38;;;2.70;;
41739;SDS011;27422;52.444;13.300;2023-07-24T11:55:13;4.78;;;2.80;;
41739;SDS011;27422;52.444;13.300;2023-07-24T11:57:40;6.30;;;2.80;;
41739;SDS011;27422;52.444;13.300;2023-07-24T12:00:05;6.50;;;2.88;;
41739;SDS011;27422;52.444;13.300;2023-07-24T12:02:42;4.65;;;2.35;;
41739;SDS011;27422;52.444;13.300;2023-07-24T12:05:07;5.97;;;2.60;;
41739;SDS011;27422;52.444;13.300;2023-07-24T12:07:35;6.05;;;2.80;;
41739;SDS011;27422;52.444;13.300;2023-07-24T12:10:01;6.97;;;2.70;;
41739;SDS011;27422;52.444;13.300;2023-07-24T12:12:37;4.93;;;2.70;;
41739;SDS011;27422;52.444;13.300;2023-07-24T12:15:07;5.72;;;2.95;;
41739;SDS011;27422;52.444;13.300;2023-07-24T12:17:33;4.65;;;2.78;;
41739;SDS011;27422;52.444;13.300;2023-07-24T12:20:00;6.10;;;2.88;;
41739;SDS011;27422;52.444;13.300;2023-07-24T12:22:26;4.70;;;2.70;;
41739;SDS011;27422;52.444;13.300;2023-07-24T12:24:51;7.28;;;2.75;;
41739;SDS011;27422;52.444;13.300;2023-07-24T12:27:17;4.80;;;2.70;;
41739;SDS011;27422;52.444;13.300;2023-07-24T12:29:42;7.28;;;2.92;;
41739;SDS011;27422;52.444;13.300;2023-07-24T12:32:07;6.28;;;2.42;;
41739;SDS011;27422;52.444;13.300;2023-07-24T12:34:33;6.07;;;2.53;;
41739;SDS011;27422;52.444;13.300;2023-07-24T12:36:58;6.32;;;2.75;;
41739;SDS011;27422;52.444;13.300;2023-07-24T12:39:23;6.57;;;2.92;;
41739;SDS011;27422;52.444;13.300;2023-07-24T12:41:49;5.38;;;2.53;;
41739;SDS011;27422;52.444;13.300;2023-07-24T12:44:14;5.55;;;2.47;;
41739;SDS011;27422;52.444;13.300;2023-07-24T12:46:40;6.30;;;2.50;;
41739;SDS011;27422;52.444;13.300;2023-07-24T12:49:05;6.88;;;2.75;;
41739;SDS011;27422;52.444;13.300;2023-07-24T12:51:30;5.15;;;2.35;;
41739;SDS011;27422;52.444;13.300;2023-07-24T12:53:56;5.65;;;2.42;;
41739;SDS011;27422;52.444;13.300;2023-07-24T12:56:21;4.57;;;2.65;;
41739;SDS011;27422;52.444;13.300;2023-07-24T12:58:47;4.50;;;2.40;;
41739;SDS011;27422;52.444;13.300;2023-07-24T13:01:12;6.45;;;2.38;;
41739;SDS011;27422;52.444;13.300;2023-07-24T13:03:37;5.78;;;2.40;;
41739;SDS011;27422;52.444;13.300;2023-07-24T13:06:03;5.78;;;2.50;;
41739;SDS011;27422;52.444;13.300;2023-07-24T13:08:31;6.53;;;2.30;;
41739;SDS011;27422;52.444;13.300;2023-07-24T13:10:56;4.88;;;2.15;;
41739;SDS011;27422;52.444;13.300;2023-07-24T13:13:21;5.72;;;2.60;;
41739;SDS011;27422;52.444;13.300;2023-07-24T13:15:47;5.88;;;2.10;;
41739;SDS011;27422;52.444;13.300;2023-07-24T13:18:14;5.10;;;2.35;;
41739;SDS011;27422;52.444;13.300;2023-07-24T13:20:41;5.53;;;1.85;;
41739;SDS011;27422;52.444;13.300;2023-07-24T13:23:06;6.38;;;2.55;;
41739;SDS011;27422;52.444;13.300;2023-07-24T13:25:32;7.10;;;2.08;;
41739;SDS011;27422;52.444;13.300;2023-07-24T13:27:57;4.00;;;2.33;;
41739;SDS011;27422;52.444;13.300;2023-07-24T13:30:23;4.75;;;2.20;;
41739;SDS011;27422;52.444;13.300;2023-07-24T13:32:48;4.10;;;2.05;;
41739;SDS011;27422;52.444;13.300;2023-07-24T13:35:13;4.28;;;2.03;;
41739;SDS011;27422;52.444;13.300;2023-07-24T13:37:40;5.05;;;2.35;;
41739;SDS011;27422;52.444;13.300;2023-07-24T13:40:06;6.60;;;2.42;;
41739;SDS011;27422;52.444;13.300;2023-07-24T13:42:32;4.35;;;2.03;;
41739;SDS011;27422;52.444;13.300;2023-07-24T13:44:57;4.65;;;2.20;;
41739;SDS011;27422;52.444;13.300;2023-07-24T13:47:22;5.10;;;2.20;;
41739;SDS011;27422;52.444;13.300;2023-07-24T13:49:48;3.88;;;1.80;;
41739;SDS011;27422;52.444;13.300;2023-07-24T13:52:13;4.68;;;2.00;;
41739;SDS011;27422;52.444;13.300;2023-07-24T13:54:38;4.75;;;1.88;;
41739;SDS011;27422;52.444;13.300;2023-07-24T13:57:04;4.18;;;1.90;;
41739;SDS011;27422;52.444;13.300;2023-07-24T13:59:32;4.03;;;2.00;;
41739;SDS011;27422;52.444;13.300;2023-07-24T14:01:57;5.15;;;2.00;;
41739;SDS011;27422;52.444;13.300;2023-07-24T14:04:23;3.63;;;1.88;;
41739;SDS011;27422;52.444;13.300;2023-07-24T14:06:48;5.47;;;2.05;;
41739;SDS011;27422;52.444;13.300;2023-07-24T14:09:13;5.63;;;2.17;;
41739;SDS011;27422;52.444;13.300;2023-07-24T14:11:39;4.05;;;2.10;;
41739;SDS011;27422;52.444;13.300;2023-07-24T14:14:04;4.15;;;2.13;;
41739;SDS011;27422;52.444;13.300;2023-07-24T14:16:29;6.65;;;1.90;;
41739;SDS011;27422;52.444;13.300;2023-07-24T14:18:55;3.53;;;1.52;;
41739;SDS011;27422;52.444;13.300;2023-07-24T14:21:20;4.57;;;2.15;;
41739;SDS011;27422;52.444;13.300;2023-07-24T14:23:46;4.28;;;2.05;;
41739;SDS011;27422;52.444;13.300;2023-07-24T14:26:11;4.57;;;2.30;;
41739;SDS011;27422;52.444;13.300;2023-07-24T14:28:36;5.55;;;2.13;;
41739;SDS011;27422;52.444;13.300;2023-07-24T14:31:02;4.05;;;2.20;;
41739;SDS011;27422;52.444;13.300;2023-07-24T14:33:29;3.90;;;2.00;;
41739;SDS011;27422;52.444;13.300;2023-07-24T14:35:55;5.35;;;1.95;;
41739;SDS011;27422;52.444;13.300;2023-07-24T14:38:20;3.83;;;2.20;;
41739;SDS011;27422;52.444;13.300;2023-07-24T14:40:46;3.92;;;1.90;;